الصفحة الرئيسية
METAR-TAF:

METAR-TAF

مطار :

Grand Junction, كولورادو, الولايات المتحدة

دائرة عرض: 39-08-02N, خط طول: 108-32-19W, ارتفاع: 1481 متر

مراقبة الطقس الحالي

تاريخ ووقت الإصدار 57 دقيقة قبل الساعة 19:00UTC
ريح 5 عقدة من الشمال/الشمال الغربي
درجة الحرارة 2°درجة مئوية
الرطوبة 55%
ضغط 1023 hPa
الرؤية: 16.1 كم
غيوم مفككة على ارتفاع 11000 قدم

METAR: KGJT 171900Z 34005KT 10SM BKN110 02/M06 A3021 RMK AO2 T00221056

زمن: 12:57 (19:57 UTC)

توقعات

تاريخ ووقت الإصدار 27 دقيقة قبل الساعة 19:30UTC
التوقعات صالحة من17 الساعة 20 UTC إلى 18 الساعة 18 UTC
ريح 5 عقدة من الشمال/الشمال الغربي
الرؤية: 10 كم
غيوم مفككة على ارتفاع 11000 قدم
ملبد بالغيوم على ارتفاع 20000 قدم
من 18 الساعة 1500 UTC
ريح 3 عقدةمن اتجاهات متغيرة
الرؤية: 10 كم
غيوم قليلة على ارتفاع 10000 قدم
غيوم متفرقة على ارتفاع 25000 قدم

TAF: KGJT 171930Z 1720/1818 34005KT P6SM BKN110 OVC200 FM181500 VRB03KT P6SM FEW100 SCT250

أرصاد الطقس والتوقعات من أكثر من 4000 مطار (تقارير الطقس للمطار METAR والتنبؤ بالطقس بالمطارTAF).

المحطات المتاحة هي النقط الصفراء والحمراء على الخريطة.

حرك المؤشر فوق النقطة لمعرفة اسم المحطة.

ثم انقر لمعرفة أرصاد وتوقعات الطقس.

لتغيير الخارطة: اضغط على الأزرار الخضراء مع رمز الصليب الأسود للتكبير. على الزر الأخضر مع شرطة للتصغير، أو على الأسهم الخضراء للخرائط المجاورة.


METAR-TAF: